createdAt,value
2023-03-04T00:00:20.774Z,36.83
2023-03-04T00:01:20.800Z,36.82
2023-03-04T00:02:20.887Z,36.82
2023-03-04T00:03:20.870Z,36.80
2023-03-04T00:04:20.825Z,36.79
2023-03-04T00:05:20.852Z,36.78
2023-03-04T00:06:20.869Z,36.77
2023-03-04T00:07:20.876Z,36.79
2023-03-04T00:08:21.823Z,36.81
2023-03-04T00:09:20.943Z,36.80
2023-03-04T00:10:20.974Z,36.79
2023-03-04T00:11:20.998Z,36.77
2023-03-04T00:12:20.990Z,36.77
2023-03-04T00:13:21.001Z,36.78
2023-03-04T00:14:21.019Z,36.79
2023-03-04T00:15:21.088Z,36.78
2023-03-04T00:16:21.085Z,36.78
2023-03-04T00:17:21.003Z,36.80
2023-03-04T00:18:21.014Z,36.78
2023-03-04T00:19:21.026Z,36.78
2023-03-04T00:20:21.045Z,36.79
2023-03-04T00:21:21.088Z,36.76
2023-03-04T00:22:21.112Z,36.74
2023-03-04T00:23:21.132Z,36.75
2023-03-04T00:24:21.149Z,36.75
2023-03-04T00:25:21.185Z,36.76
2023-03-04T00:26:21.204Z,36.76
2023-03-04T00:27:21.238Z,36.73
2023-03-04T00:28:21.263Z,36.76
2023-03-04T00:29:21.279Z,36.76
2023-03-04T00:30:21.315Z,36.77
2023-03-04T00:31:21.351Z,36.73
2023-03-04T01:25:21.927Z,36.54
2023-03-04T01:26:21.932Z,36.52
2023-03-04T01:27:21.941Z,36.53
2023-03-04T01:28:21.955Z,36.51
2023-03-04T01:29:21.942Z,36.54
2023-03-04T01:30:22.027Z,36.55
2023-03-04T01:31:21.953Z,36.54
2023-03-04T01:32:22.005Z,36.54
2023-03-04T01:33:21.965Z,36.54
2023-03-04T01:34:21.959Z,36.51
2023-03-04T01:35:21.986Z,36.51
2023-03-04T01:36:21.973Z,36.53
2023-03-04T01:37:21.984Z,36.52
2023-03-04T01:38:21.981Z,36.53
2023-03-04T01:39:22.009Z,36.50
2023-03-04T01:40:22.017Z,36.50
2023-03-04T01:41:22.001Z,36.51
2023-03-04T01:42:22.019Z,36.50
2023-03-04T01:43:22.036Z,36.49
2023-03-04T01:44:22.045Z,36.47
2023-03-04T01:45:22.046Z,36.47
2023-03-04T01:46:22.172Z,36.47
2023-03-04T01:47:22.093Z,36.44
2023-03-04T01:48:22.087Z,36.43
2023-03-04T01:49:22.089Z,36.44
2023-03-04T01:50:22.119Z,36.46
2023-03-04T01:51:22.094Z,36.46
2023-03-04T01:52:22.117Z,36.44
2023-03-04T01:53:22.102Z,36.43
2023-03-04T01:54:22.114Z,36.43
2023-03-04T02:55:22.809Z,36.26
2023-03-04T02:56:22.820Z,36.27
2023-03-04T02:57:22.840Z,36.27
2023-03-04T02:58:22.847Z,36.25
2023-03-04T02:59:22.850Z,36.24
2023-03-04T03:00:22.860Z,36.26
2023-03-04T03:01:22.986Z,36.23
2023-03-04T03:02:22.881Z,36.24
2023-03-04T03:03:22.887Z,36.23
2023-03-04T03:07:22.944Z,36.25
2023-03-04T03:08:22.943Z,36.23
2023-03-04T03:09:22.949Z,36.21
2023-03-04T03:10:23.879Z,36.22
2023-03-04T03:11:22.987Z,36.22
2023-03-04T03:12:23.015Z,36.21
2023-03-04T03:13:23.017Z,36.20
2023-03-04T03:14:23.032Z,36.19
2023-03-04T03:15:23.050Z,36.21
2023-03-04T03:16:23.157Z,36.20
2023-03-04T03:17:23.081Z,36.17
2023-03-04T03:18:23.091Z,36.18
2023-03-04T03:19:23.112Z,36.19
2023-03-04T03:20:23.882Z,36.19
2023-03-04T03:21:23.225Z,36.19
2023-03-04T03:22:23.153Z,36.19
2023-03-04T03:23:23.159Z,36.19
2023-03-04T03:24:23.171Z,36.17
2023-03-04T03:25:23.187Z,36.14
2023-03-04T03:26:23.200Z,36.17
2023-03-04T03:27:23.204Z,36.15
2023-03-04T03:28:23.223Z,36.15
2023-03-04T03:29:23.236Z,36.16
2023-03-04T03:30:23.247Z,36.15
2023-03-04T03:31:23.322Z,36.17
2023-03-04T03:32:23.926Z,36.14
2023-03-04T03:33:23.293Z,36.15
2023-03-04T06:55:27.803Z,35.57
2023-03-04T06:56:27.750Z,35.58
2023-03-04T06:57:27.813Z,35.57
2023-03-04T06:58:27.804Z,35.57
2023-03-04T07:00:27.951Z,35.53
2023-03-04T07:01:27.893Z,35.54
2023-03-04T07:02:27.914Z,35.55
2023-03-04T07:03:27.936Z,35.51
2023-03-04T07:04:27.989Z,35.54
2023-03-04T07:05:28.000Z,35.53
2023-03-04T07:06:28.026Z,35.52
2023-03-04T07:07:28.056Z,35.52
2023-03-04T07:08:28.080Z,35.52
2023-03-04T07:09:28.113Z,35.51
2023-03-04T07:10:28.148Z,35.55
2023-03-04T07:11:28.176Z,35.54
2023-03-04T07:12:28.211Z,35.52
2023-03-04T07:13:28.246Z,35.51
2023-03-04T07:14:28.266Z,35.50
2023-03-04T07:15:28.306Z,35.50
2023-03-04T07:16:28.457Z,35.50
2023-03-04T07:17:28.380Z,35.50
2023-03-04T07:18:28.410Z,35.47
2023-03-04T07:19:28.443Z,35.48
2023-03-04T07:20:30.740Z,35.49
2023-03-04T07:21:28.491Z,35.50
2023-03-04T07:22:28.504Z,35.51
2023-03-04T07:23:28.501Z,35.48
2023-03-04T07:24:28.506Z,35.47
2023-03-04T07:25:28.520Z,35.46
2023-03-04T07:26:28.506Z,35.46
2023-03-04T07:27:28.524Z,35.44
2023-03-04T07:28:28.536Z,35.47
2023-03-04T07:29:28.541Z,35.45
2023-03-04T07:30:28.532Z,35.43
2023-03-04T07:31:28.578Z,35.43
2023-03-04T07:32:28.557Z,35.44
2023-03-04T07:33:28.525Z,35.44
2023-03-04T07:34:28.529Z,35.41
2023-03-04T07:35:28.548Z,35.41
2023-03-04T07:36:28.531Z,35.45
2023-03-04T07:37:28.542Z,35.42
2023-03-04T07:38:28.541Z,35.40
2023-03-04T07:39:28.540Z,35.42
2023-03-04T07:40:28.632Z,35.43
2023-03-04T07:41:28.553Z,35.41
2023-03-04T07:42:28.553Z,35.41
2023-03-04T07:43:28.555Z,35.41
2023-03-04T07:44:28.556Z,35.39
2023-03-04T07:45:28.979Z,35.39
2023-03-04T07:46:28.571Z,35.41
2023-03-04T07:47:28.581Z,35.40
2023-03-04T07:48:28.584Z,35.39
2023-03-04T07:49:28.568Z,35.38
2023-03-04T07:50:28.649Z,35.37
2023-03-04T07:51:28.603Z,35.34
2023-03-04T07:52:28.577Z,35.35
2023-03-04T07:53:28.577Z,35.30
2023-03-04T07:54:28.584Z,35.33
2023-03-04T07:55:28.631Z,35.32
2023-03-04T07:56:28.662Z,35.33
2023-03-04T07:57:28.587Z,35.33
2023-03-04T07:58:28.601Z,35.31
2023-03-04T07:59:28.614Z,35.31
2023-03-04T08:00:28.635Z,35.32
2023-03-04T08:01:28.614Z,35.29
2023-03-04T08:02:28.638Z,35.31
2023-03-04T08:03:28.612Z,35.30
2023-03-04T08:04:28.671Z,35.30
2023-03-04T08:05:28.622Z,35.27
2023-03-04T08:06:28.616Z,35.28
2023-03-04T08:07:28.612Z,35.29
2023-03-04T08:08:28.621Z,35.29
2023-03-04T08:09:28.604Z,35.28
2023-03-04T08:10:28.612Z,35.26
2023-03-04T08:11:28.614Z,35.24
2023-03-04T08:12:28.627Z,35.24
2023-03-04T08:13:28.611Z,35.24
2023-03-04T08:14:28.608Z,35.25
2023-03-04T08:15:28.606Z,35.25
2023-03-04T08:16:28.615Z,35.24
2023-03-04T08:17:28.620Z,35.22
2023-03-04T08:18:28.644Z,35.23
2023-03-04T08:19:28.620Z,35.22
2023-03-04T08:20:28.617Z,35.20
2023-03-04T08:43:28.766Z,35.10
2023-03-04T08:44:28.787Z,35.08
2023-03-04T08:45:28.805Z,35.14
2023-03-04T08:46:28.961Z,35.10
2023-03-04T08:47:28.860Z,35.10
2023-03-04T08:48:28.944Z,35.09
2023-03-04T08:49:28.974Z,35.08
2023-03-04T08:50:28.940Z,35.08
2023-03-04T08:51:28.960Z,35.09
2023-03-04T08:52:28.983Z,35.08
2023-03-04T08:53:29.021Z,35.07
2023-03-04T08:54:29.030Z,35.08
2023-03-04T08:55:29.063Z,35.05
2023-03-04T08:56:29.079Z,35.05
2023-03-04T08:57:29.110Z,35.04
2023-03-04T08:58:29.175Z,35.05
2023-03-04T08:59:29.139Z,35.05
2023-03-04T09:00:29.146Z,35.04
2023-03-04T09:01:29.187Z,35.01
2023-03-04T09:02:29.204Z,35.03
2023-03-04T09:03:29.351Z,35.00
2023-03-04T09:04:29.321Z,35.01
2023-03-04T09:05:29.261Z,35.01
2023-03-04T09:06:29.295Z,34.99
2023-03-04T09:07:29.320Z,35.00
2023-03-04T09:08:29.337Z,34.96
2023-03-04T09:09:29.363Z,34.98
2023-03-04T09:10:29.386Z,34.98
2023-03-04T09:11:29.400Z,34.98
2023-03-04T09:12:29.419Z,34.94
2023-03-04T09:13:29.485Z,34.96
2023-03-04T09:14:29.467Z,34.95
2023-03-04T09:15:29.494Z,34.93
2023-03-04T09:16:29.564Z,34.93
2023-03-04T09:17:29.523Z,34.94
2023-03-04T09:18:29.554Z,34.92
2023-03-04T09:19:29.580Z,34.92
2023-03-04T09:20:29.585Z,34.90
2023-03-04T09:21:29.613Z,34.90
2023-03-04T09:22:29.625Z,34.91
2023-03-04T09:23:29.650Z,34.87
2023-03-04T09:24:29.676Z,34.88
2023-03-04T09:25:29.698Z,34.87
2023-03-04T09:26:29.719Z,34.87
2023-03-04T09:27:29.724Z,34.85
2023-03-04T09:28:29.737Z,34.85
2023-03-04T09:29:29.749Z,34.82
2023-03-04T09:30:29.763Z,34.84
2023-03-04T09:31:29.845Z,34.82
2023-03-04T09:32:29.798Z,34.84
2023-03-04T09:33:29.813Z,34.81
2023-03-04T09:34:29.863Z,34.80
2023-03-04T09:35:29.899Z,34.79
2023-03-04T09:36:29.883Z,34.81
2023-03-04T09:37:29.868Z,34.78
2023-03-04T09:38:29.883Z,34.82
2023-03-04T09:39:29.901Z,34.77
2023-03-04T09:40:29.916Z,34.78
2023-03-04T09:41:29.918Z,34.75
2023-03-04T09:42:29.917Z,34.77
2023-03-04T09:43:29.987Z,34.74
2023-03-04T09:44:29.952Z,34.73
2023-03-04T09:45:29.957Z,34.75
2023-03-04T09:46:30.009Z,34.70
2023-03-04T09:47:29.989Z,34.71
2023-03-04T09:48:30.014Z,34.71
2023-03-04T09:49:30.021Z,34.69
2023-03-04T09:50:30.033Z,34.71
2023-03-04T09:51:30.051Z,34.68
2023-03-04T09:52:30.077Z,34.69
2023-03-04T09:53:30.078Z,34.66
2023-03-04T09:54:30.088Z,34.68
2023-03-04T09:55:30.098Z,34.65
2023-03-04T09:56:30.123Z,34.64
2023-03-04T09:57:30.126Z,34.63
2023-03-04T09:58:30.166Z,34.63
2023-03-04T09:59:30.189Z,34.60
2023-03-04T10:00:30.212Z,34.60
2023-03-04T10:01:30.207Z,34.61
2023-03-04T10:02:30.239Z,34.60
2023-03-04T10:03:30.266Z,34.59
2023-03-04T10:04:30.332Z,34.55
2023-03-04T10:05:30.335Z,34.56
2023-03-04T10:06:30.382Z,34.55
2023-03-04T10:07:30.450Z,34.51
2023-03-04T10:08:30.481Z,34.51
2023-03-04T10:09:30.520Z,34.50
2023-03-04T10:10:31.037Z,34.48
2023-03-04T10:11:30.648Z,34.46
2023-03-04T10:12:30.670Z,34.46
2023-03-04T10:13:30.792Z,34.45
2023-03-04T10:14:30.847Z,34.44
2023-03-04T10:15:30.897Z,34.44
2023-03-04T10:16:31.022Z,34.41
2023-03-04T10:17:31.056Z,34.41
2023-03-04T10:18:31.112Z,34.36
2023-03-04T10:19:31.195Z,34.36
2023-03-04T10:20:31.317Z,34.36
2023-03-04T10:21:31.308Z,34.33
2023-03-04T10:22:31.374Z,34.33
2023-03-04T10:23:31.448Z,34.32
2023-03-04T10:24:31.522Z,34.29
2023-03-04T10:25:31.656Z,34.28
2023-03-04T10:26:31.625Z,34.27
2023-03-04T10:27:31.675Z,34.26
2023-03-04T10:28:31.809Z,34.25
2023-03-04T10:29:31.769Z,34.23
2023-03-04T10:30:31.875Z,34.21
2023-03-04T10:31:31.899Z,34.22
2023-03-04T18:57:37.716Z,34.31
2023-03-04T18:58:37.768Z,34.34
2023-03-04T18:59:37.780Z,34.33
2023-03-04T19:00:37.784Z,34.34
2023-03-04T19:01:37.818Z,34.32
2023-03-04T19:02:37.835Z,34.34
2023-03-04T19:03:37.879Z,34.32
2023-03-04T19:04:37.896Z,34.35
2023-03-04T19:05:37.933Z,34.33
2023-03-04T19:06:37.951Z,34.34
2023-03-04T19:07:38.003Z,34.32
2023-03-04T19:08:38.008Z,34.35
2023-03-04T19:09:38.028Z,34.33
2023-03-04T19:10:38.064Z,34.35
2023-03-04T19:11:38.090Z,34.35
2023-03-04T19:12:38.178Z,34.36
2023-03-04T19:13:38.155Z,34.34
2023-03-04T19:32:38.756Z,34.37
2023-03-04T19:33:38.784Z,34.36
2023-03-04T19:34:38.820Z,34.36
2023-03-04T19:36:38.890Z,34.35
2023-03-04T19:37:38.916Z,34.36
2023-03-04T19:38:38.940Z,34.37
2023-03-04T22:36:47.752Z,34.18
2023-03-04T22:37:47.798Z,34.16
2023-03-04T22:38:47.925Z,34.19
2023-03-04T22:39:47.906Z,34.17
2023-03-04T22:40:47.944Z,34.16
2023-03-04T22:41:48.002Z,34.16
2023-03-04T22:42:48.053Z,34.17
2023-03-04T22:43:48.172Z,34.16
2023-03-04T22:44:48.194Z,34.16
2023-03-04T22:45:48.199Z,34.17
2023-03-04T22:46:48.204Z,34.17
2023-03-04T22:47:48.234Z,34.15
2023-03-04T22:48:48.279Z,34.14
2023-03-04T22:49:48.284Z,34.16
2023-03-04T22:50:48.305Z,34.14
2023-03-04T22:51:48.347Z,34.15
2023-03-04T22:52:48.367Z,34.15
2023-03-04T22:53:48.825Z,34.14
2023-03-04T22:54:48.449Z,34.15
2023-03-04T22:55:48.491Z,34.15
2023-03-04T22:56:48.501Z,34.14
2023-03-04T22:57:48.521Z,34.14
2023-03-04T22:58:48.558Z,34.15
2023-03-04T22:59:48.557Z,34.12
2023-03-04T23:00:48.619Z,34.14
2023-03-04T23:01:48.641Z,34.14
2023-03-04T23:02:48.683Z,34.15
2023-03-04T23:03:48.755Z,34.13
2023-03-04T23:04:48.832Z,34.13
2023-03-04T23:05:48.843Z,34.14
2023-03-04T23:06:48.911Z,34.13
2023-03-04T23:07:48.974Z,34.11
2023-03-04T23:08:49.025Z,34.11
2023-03-04T23:09:49.059Z,34.12
2023-03-04T23:10:49.106Z,34.11
2023-03-04T23:12:49.196Z,34.11
2023-03-04T23:13:49.235Z,34.11
2023-03-04T23:14:49.333Z,34.11
2023-03-04T23:15:49.307Z,34.10
2023-03-04T23:16:49.408Z,34.10
2023-03-04T23:17:49.360Z,34.09
2023-03-04T23:18:49.399Z,34.10
2023-03-04T23:19:49.410Z,34.10
2023-03-04T23:20:49.412Z,34.08
2023-03-04T23:21:49.418Z,34.07
2023-03-04T23:22:49.437Z,34.06
2023-03-04T23:23:49.454Z,34.08
2023-03-04T23:55:50.060Z,34.03
2023-03-04T23:58:50.090Z,34.00
